Time;durP1;ratioP1;P1;durP2;ratioP2;P2;SDS_P1;SDS_P2;PMS_P1;PMS_P2;Temp;Humidity;BMP_temperature;BMP_pressure;BME280_temperature;BME280_humidity;BME280_pressure;Samples;Min_cycle;Max_cycle;Signal;HPM_P1;HPM_P2
2024/03/05 00:02:32;;;;;;;49.97;22.10;;;;;;;;;;6179002;23;20287;-88
2024/03/05 00:05:38;;;;;;;47.10;22.00;;;;;;;;;;6195204;23;20184;-89
2024/03/05 00:08:45;;;;;;;51.90;22.02;;;;;;;;;;6195891;23;20179;-88
2024/03/05 00:11:50;;;;;;;49.67;22.63;;;;;;;;;;6179048;23;20171;-90
2024/03/05 00:14:56;;;;;;;53.63;22.13;;;;;;;;;;6197556;23;20195;-89
2024/03/05 00:18:04;;;;;;;54.25;23.50;;;;;;;;;;6181484;23;20608;-87
2024/03/05 00:21:09;;;;;;;54.78;22.48;;;;;;;;;;6180925;23;20167;-89
2024/03/05 00:24:16;;;;;;;53.85;23.05;;;;;;;;;;6181601;23;20248;-87
2024/03/05 00:27:21;;;;;;;49.60;22.10;;;;;;;;;;6180932;23;20186;-88
2024/03/05 00:30:26;;;;;;;53.33;23.10;;;;;;;;;;6198861;23;20200;-88
2024/03/05 00:33:32;;;;;;;49.70;21.58;;;;;;;;;;6197724;23;20263;-87
2024/03/05 00:36:37;;;;;;;49.13;21.08;;;;;;;;;;6182030;23;20147;-86
2024/03/05 00:39:44;;;;;;;55.20;23.02;;;;;;;;;;6199360;23;20179;-88
2024/03/05 00:42:50;;;;;;;55.08;23.00;;;;;;;;;;6183089;23;20251;-89
2024/03/05 00:45:55;;;;;;;57.78;22.92;;;;;;;;;;6200232;23;20174;-89
2024/03/05 00:49:00;;;;;;;52.63;22.02;;;;;;;;;;6199047;23;20207;-89
2024/03/05 00:52:06;;;;;;;47.17;21.10;;;;;;;;;;6198650;23;20168;-87
2024/03/05 00:55:12;;;;;;;46.63;20.85;;;;;;;;;;6198748;23;20212;-89
2024/03/05 00:58:17;;;;;;;53.55;21.83;;;;;;;;;;6199733;23;20171;-89
2024/03/05 01:01:22;;;;;;;48.20;20.58;;;;;;;;;;6199699;23;20607;-88
2024/03/05 01:04:28;;;;;;;43.22;19.25;;;;;;;;;;6197832;23;20247;-89
2024/03/05 01:07:33;;;;;;;39.10;18.27;;;;;;;;;;6180555;23;20211;-88
2024/03/05 01:10:41;;;;;;;47.15;19.40;;;;;;;;;;6199707;23;20211;-88
2024/03/05 01:13:46;;;;;;;44.88;19.55;;;;;;;;;;6198979;23;20199;-89
2024/03/05 01:16:51;;;;;;;50.05;19.75;;;;;;;;;;6198805;23;20199;-88
2024/03/05 01:19:57;;;;;;;43.95;18.65;;;;;;;;;;6181743;23;20160;-89
2024/03/05 01:23:02;;;;;;;44.70;18.08;;;;;;;;;;6181424;23;20167;-88
2024/03/05 01:26:10;;;;;;;48.42;19.77;;;;;;;;;;6199257;23;20171;-88
2024/03/05 01:29:17;;;;;;;41.83;19.27;;;;;;;;;;6181162;23;20175;-90
2024/03/05 01:32:22;;;;;;;43.15;18.55;;;;;;;;;;6180692;23;20172;-88
2024/03/05 01:35:27;;;;;;;43.22;18.77;;;;;;;;;;6198942;23;20195;-90
2024/03/05 01:38:33;;;;;;;45.70;19.02;;;;;;;;;;6197059;23;20164;-89
2024/03/05 01:41:40;;;;;;;47.65;19.55;;;;;;;;;;6198297;23;20179;-89
2024/03/05 01:44:47;;;;;;;44.60;18.83;;;;;;;;;;6181879;23;20163;-88
2024/03/05 01:47:52;;;;;;;45.70;20.10;;;;;;;;;;6181057;23;20163;-89
2024/03/05 01:50:57;;;;;;;49.45;19.90;;;;;;;;;;6199205;23;20255;-88
2024/03/05 01:54:03;;;;;;;45.13;18.65;;;;;;;;;;6179810;23;20191;-89
2024/03/05 01:57:15;;;;;;;47.10;19.25;;;;;;;;;;6181104;23;20195;-88
2024/03/05 02:00:21;;;;;;;41.28;19.38;;;;;;;;;;6198227;23;20183;-89
2024/03/05 02:03:27;;;;;;;46.40;20.85;;;;;;;;;;6181776;23;20152;-89
2024/03/05 02:06:32;;;;;;;60.25;24.73;;;;;;;;;;6198241;23;20247;-89
2024/03/05 02:09:37;;;;;;;58.78;23.70;;;;;;;;;;6197880;23;20168;-89
2024/03/05 02:12:44;;;;;;;49.58;20.85;;;;;;;;;;6181464;23;20155;-87
2024/03/05 02:15:50;;;;;;;51.80;21.20;;;;;;;;;;6178666;23;20911;-89
2024/03/05 02:18:55;;;;;;;48.78;21.00;;;;;;;;;;6180709;23;20204;-89
2024/03/05 02:22:03;;;;;;;51.70;20.50;;;;;;;;;;6198938;23;20607;-88
2024/03/05 02:25:09;;;;;;;52.90;20.38;;;;;;;;;;6197825;23;20655;-88
2024/03/05 02:28:15;;;;;;;46.03;19.13;;;;;;;;;;6197159;23;20168;-86
2024/03/05 02:31:21;;;;;;;44.35;20.10;;;;;;;;;;6198438;23;20164;-87
2024/03/05 02:34:27;;;;;;;51.35;19.77;;;;;;;;;;6162230;23;20555;-88
2024/03/05 02:37:34;;;;;;;44.03;19.15;;;;;;;;;;6198600;23;20243;-88
2024/03/05 02:40:39;;;;;;;45.17;19.60;;;;;;;;;;6198441;23;20167;-86
2024/03/05 02:43:45;;;;;;;45.55;19.35;;;;;;;;;;6178266;23;20296;-88
2024/03/05 02:46:50;;;;;;;45.38;20.40;;;;;;;;;;6179227;23;20160;-88
2024/03/05 02:49:55;;;;;;;45.88;19.90;;;;;;;;;;6178912;23;20503;-88
2024/03/05 02:53:04;;;;;;;46.05;20.63;;;;;;;;;;6196860;23;20502;-87
2024/03/05 02:56:12;;;;;;;50.25;21.05;;;;;;;;;;6180350;23;20175;-89
2024/03/05 02:59:17;;;;;;;50.97;20.50;;;;;;;;;;6196158;23;20631;-88
2024/03/05 03:02:23;;;;;;;45.47;19.67;;;;;;;;;;6197557;23;20179;-88
2024/03/05 03:05:28;;;;;;;49.88;21.48;;;;;;;;;;6197519;23;20167;-88
2024/03/05 03:08:34;;;;;;;50.28;20.20;;;;;;;;;;6197652;23;20163;-89
2024/03/05 03:11:41;;;;;;;46.47;19.67;;;;;;;;;;6180216;23;20163;-87
2024/03/05 03:14:46;;;;;;;45.45;19.65;;;;;;;;;;6179673;23;20199;-89
2024/03/05 03:17:51;;;;;;;51.45;20.60;;;;;;;;;;6197225;23;20600;-89
2024/03/05 03:20:56;;;;;;;42.08;20.02;;;;;;;;;;6179493;23;20172;-88
2024/03/05 03:24:03;;;;;;;44.97;19.70;;;;;;;;;;6196537;23;20172;-89
2024/03/05 03:27:08;;;;;;;51.20;20.08;;;;;;;;;;6176860;23;20631;-88
2024/03/05 03:30:20;;;;;;;49.50;20.13;;;;;;;;;;6196120;23;20159;-90
2024/03/05 03:33:26;;;;;;;44.42;20.27;;;;;;;;;;6177520;23;20647;-88
2024/03/05 03:36:30;;;;;;;45.90;20.33;;;;;;;;;;6195617;23;20472;-89
2024/03/05 03:39:37;;;;;;;51.42;20.73;;;;;;;;;;6179036;23;20171;-89
2024/03/05 03:42:44;;;;;;;51.05;21.02;;;;;;;;;;6180133;23;20259;-89
2024/03/05 03:45:50;;;;;;;44.45;20.25;;;;;;;;;;6196494;23;20172;-88
2024/03/05 03:48:56;;;;;;;52.55;20.42;;;;;;;;;;6179840;23;20176;-87
2024/03/05 03:52:01;;;;;;;51.40;20.88;;;;;;;;;;6197534;23;20164;-89
2024/03/05 03:55:09;;;;;;;51.53;21.20;;;;;;;;;;6199398;23;20365;-89
2024/03/05 03:58:14;;;;;;;49.63;20.60;;;;;;;;;;6183508;23;20236;-89
2024/03/05 04:01:20;;;;;;;50.10;20.40;;;;;;;;;;6201896;23;20287;-88
2024/03/05 04:04:26;;;;;;;50.17;20.75;;;;;;;;;;6199586;23;20183;-88
2024/03/05 04:07:31;;;;;;;52.65;22.00;;;;;;;;;;6200761;23;20283;-88
2024/03/05 04:10:38;;;;;;;53.17;21.33;;;;;;;;;;6180359;23;20215;-85
2024/03/05 04:13:45;;;;;;;52.72;20.42;;;;;;;;;;6183306;23;20152;-89
2024/03/05 04:16:52;;;;;;;51.17;21.58;;;;;;;;;;6199712;23;20675;-87
2024/03/05 04:19:57;;;;;;;49.75;20.30;;;;;;;;;;6199948;23;20270;-90
2024/03/05 04:23:03;;;;;;;49.83;20.50;;;;;;;;;;6200300;23;20152;-88
2024/03/05 04:26:13;;;;;;;50.28;20.73;;;;;;;;;;6184104;23;20211;-89
2024/03/05 04:29:19;;;;;;;45.80;20.00;;;;;;;;;;6203405;23;20171;-89
2024/03/05 04:32:26;;;;;;;56.67;21.17;;;;;;;;;;6202806;23;20619;-89
2024/03/05 04:35:31;;;;;;;50.67;20.30;;;;;;;;;;6200818;23;20195;-87
2024/03/05 04:38:37;;;;;;;49.28;20.63;;;;;;;;;;6198682;23;20159;-88
2024/03/05 04:41:46;;;;;;;49.05;20.80;;;;;;;;;;6198134;23;20151;-89
2024/03/05 04:44:51;;;;;;;52.75;20.63;;;;;;;;;;6199784;23;20231;-88
2024/03/05 04:47:56;;;;;;;46.05;20.17;;;;;;;;;;6184578;23;20179;-87
2024/03/05 04:51:02;;;;;;;51.58;20.58;;;;;;;;;;6198597;23;20172;-87
2024/03/05 04:54:09;;;;;;;53.70;20.88;;;;;;;;;;6199727;23;20163;-88
2024/03/05 04:57:16;;;;;;;52.35;21.25;;;;;;;;;;6182472;23;20215;-88
2024/03/05 05:00:23;;;;;;;50.55;20.75;;;;;;;;;;6183154;23;20152;-88
2024/03/05 05:03:28;;;;;;;59.88;21.42;;;;;;;;;;6198884;23;20184;-88
2024/03/05 05:06:33;;;;;;;57.85;21.40;;;;;;;;;;6181267;23;20168;-88
2024/03/05 05:09:40;;;;;;;53.05;20.88;;;;;;;;;;6198431;23;20191;-89
2024/03/05 05:12:47;;;;;;;51.55;19.58;;;;;;;;;;6181862;23;20211;-89
2024/03/05 05:15:54;;;;;;;55.47;22.08;;;;;;;;;;6200345;23;20208;-89
2024/03/05 05:18:59;;;;;;;60.35;22.10;;;;;;;;;;6184376;23;20171;-90
2024/03/05 05:22:05;;;;;;;53.78;21.45;;;;;;;;;;6201018;23;20163;-88
2024/03/05 05:25:10;;;;;;;51.03;21.23;;;;;;;;;;6199691;23;20172;-88
2024/03/05 05:28:18;;;;;;;51.00;20.38;;;;;;;;;;6197394;23;20612;-88
2024/03/05 05:31:24;;;;;;;57.50;21.63;;;;;;;;;;6181548;23;20172;-89
2024/03/05 05:34:29;;;;;;;58.90;23.52;;;;;;;;;;6184537;23;20195;-88
2024/03/05 05:37:35;;;;;;;63.85;21.95;;;;;;;;;;6202601;23;20192;-89
2024/03/05 05:40:40;;;;;;;58.75;22.08;;;;;;;;;;6197928;23;20172;-88
2024/03/05 05:43:47;;;;;;;60.80;22.38;;;;;;;;;;6199914;23;20168;-88
2024/03/05 05:46:52;;;;;;;59.33;21.02;;;;;;;;;;6198076;23;20167;-89
2024/03/05 05:49:58;;;;;;;57.78;21.77;;;;;;;;;;6180998;23;20168;-89
2024/03/05 05:53:08;;;;;;;62.00;21.95;;;;;;;;;;6199338;23;20225;-90
2024/03/05 05:56:17;;;;;;;69.47;23.38;;;;;;;;;;6181151;23;20242;-89
2024/03/05 05:59:23;;;;;;;66.72;23.88;;;;;;;;;;6199904;23;20164;-88
2024/03/05 06:02:28;;;;;;;70.88;23.52;;;;;;;;;;6182712;23;20675;-87
2024/03/05 06:05:35;;;;;;;67.30;23.92;;;;;;;;;;6199358;23;20240;-90
2024/03/05 06:08:40;;;;;;;58.90;22.60;;;;;;;;;;6180357;23;20168;-88
2024/03/05 06:11:45;;;;;;;61.38;22.25;;;;;;;;;;6198085;23;20412;-88
2024/03/05 06:14:52;;;;;;;56.35;21.10;;;;;;;;;;6181551;23;20176;-89
2024/03/05 06:17:59;;;;;;;59.40;21.67;;;;;;;;;;6198067;23;20229;-89
2024/03/05 06:21:05;;;;;;;64.95;22.88;;;;;;;;;;6181782;23;20168;-88
2024/03/05 06:24:11;;;;;;;61.88;22.02;;;;;;;;;;6182384;23;20171;-89
2024/03/05 06:27:17;;;;;;;58.80;20.65;;;;;;;;;;6196760;23;20283;-88
2024/03/05 06:30:25;;;;;;;57.33;20.33;;;;;;;;;;6197043;23;20172;-88
2024/03/05 06:33:30;;;;;;;67.68;21.55;;;;;;;;;;6194892;23;20238;-88
2024/03/05 06:36:35;;;;;;;63.60;20.80;;;;;;;;;;6184310;23;20183;-90
2024/03/05 06:39:41;;;;;;;68.53;20.80;;;;;;;;;;6200036;23;20164;-88
2024/03/05 06:42:52;;;;;;;66.97;21.25;;;;;;;;;;6200424;23;20171;-88
2024/03/05 06:45:59;;;;;;;64.78;22.02;;;;;;;;;;6200375;23;20708;-89
2024/03/05 06:49:08;;;;;;;65.70;21.60;;;;;;;;;;6181630;23;20211;-89
2024/03/05 06:59:05;;;;;;;62.67;21.45;;;;;;;;;;6119016;23;20191;-89
2024/03/05 07:02:12;;;;;;;62.10;22.05;;;;;;;;;;6196493;23;20192;-87
2024/03/05 07:05:17;;;;;;;67.90;23.10;;;;;;;;;;6198555;23;20167;-89
2024/03/05 07:08:22;;;;;;;66.70;21.67;;;;;;;;;;6199023;23;20503;-90
2024/03/05 07:11:29;;;;;;;64.70;20.55;;;;;;;;;;6181723;23;20216;-88
2024/03/05 07:14:34;;;;;;;60.13;20.90;;;;;;;;;;6196768;23;20155;-86
2024/03/05 07:17:42;;;;;;;68.57;22.67;;;;;;;;;;6179792;23;20168;-89
2024/03/05 07:20:48;;;;;;;71.45;23.05;;;;;;;;;;6197070;23;20164;-89
2024/03/05 07:23:54;;;;;;;62.63;22.45;;;;;;;;;;6196260;23;20168;-90
2024/03/05 07:26:59;;;;;;;71.72;22.75;;;;;;;;;;6178628;23;20180;-91
2024/03/05 07:33:52;;;;;;;63.65;21.67;;;;;;;;;;6180101;23;20187;-89
2024/03/05 07:36:57;;;;;;;65.70;21.85;;;;;;;;;;6180238;23;20203;-89
2024/03/05 07:40:11;;;;;;;67.25;21.75;;;;;;;;;;6194915;23;20163;-89
2024/03/05 07:43:21;;;;;;;69.78;22.67;;;;;;;;;;6179426;23;20152;-89
2024/03/05 07:46:32;;;;;;;68.75;23.08;;;;;;;;;;6195466;23;20241;-89
2024/03/05 07:49:38;;;;;;;78.82;28.85;;;;;;;;;;6198199;23;20168;-88
2024/03/05 07:52:44;;;;;;;89.82;32.40;;;;;;;;;;6179176;23;20168;-89
2024/03/05 07:55:50;;;;;;;76.78;24.67;;;;;;;;;;6179677;23;20174;-89
2024/03/05 07:58:55;;;;;;;70.15;23.38;;;;;;;;;;6198129;23;20152;-89
2024/03/05 08:02:00;;;;;;;70.60;23.55;;;;;;;;;;6198245;23;20172;-89
2024/03/05 08:05:07;;;;;;;68.38;23.30;;;;;;;;;;6197945;23;20168;-89
2024/03/05 08:08:12;;;;;;;67.32;24.58;;;;;;;;;;6178817;23;20167;-89
2024/03/05 08:11:18;;;;;;;70.32;23.58;;;;;;;;;;6194632;23;20502;-89
2024/03/05 08:14:23;;;;;;;66.00;21.88;;;;;;;;;;6195048;23;20155;-90
2024/03/05 08:17:28;;;;;;;61.38;22.27;;;;;;;;;;6197020;23;20452;-89
2024/03/05 08:20:35;;;;;;;67.15;21.98;;;;;;;;;;6197775;23;20168;-90
2024/03/05 08:23:40;;;;;;;65.20;22.45;;;;;;;;;;6196697;23;20212;-89
2024/03/05 08:26:45;;;;;;;62.42;22.33;;;;;;;;;;6180317;23;20219;-89
2024/03/05 08:29:51;;;;;;;63.05;22.42;;;;;;;;;;6180497;23;20167;-87
2024/03/05 08:32:57;;;;;;;69.75;23.30;;;;;;;;;;6200166;23;20195;-90
2024/03/05 09:46:30;;;;;;;69.65;25.27;;;;;;;;;;6172007;23;20244;-88
2024/03/05 09:49:36;;;;;;;65.55;24.55;;;;;;;;;;6178207;23;20599;-89
2024/03/05 09:52:43;;;;;;;68.85;25.25;;;;;;;;;;6196652;23;20202;-89
2024/03/05 09:55:51;;;;;;;68.88;23.58;;;;;;;;;;6195568;23;20195;-90
2024/03/05 09:58:56;;;;;;;66.55;26.08;;;;;;;;;;6177940;23;20237;-91
2024/03/05 10:02:03;;;;;;;66.53;24.50;;;;;;;;;;6198791;23;20171;-90
2024/03/05 10:05:10;;;;;;;61.65;23.33;;;;;;;;;;6197821;23;20176;-90
2024/03/05 10:08:15;;;;;;;69.93;24.55;;;;;;;;;;6197720;23;20167;-89
2024/03/05 10:11:21;;;;;;;77.80;25.48;;;;;;;;;;6199926;23;20171;-90
2024/03/05 10:14:27;;;;;;;67.88;24.55;;;;;;;;;;6198184;23;20224;-90
2024/03/05 10:17:43;;;;;;;67.20;24.05;;;;;;;;;;6196426;23;20274;-90
2024/03/05 10:20:47;;;;;;;69.72;24.92;;;;;;;;;;6195524;23;20163;-90
2024/03/05 10:23:59;;;;;;;72.20;26.52;;;;;;;;;;6178662;23;20593;-89
2024/03/05 10:27:05;;;;;;;72.05;25.20;;;;;;;;;;6200356;23;20163;-90
2024/03/05 10:30:20;;;;;;;66.28;22.90;;;;;;;;;;6179846;23;20168;-91
2024/03/05 10:33:29;;;;;;;66.38;24.80;;;;;;;;;;6183300;23;20644;-91
2024/03/05 10:36:36;;;;;;;64.68;24.45;;;;;;;;;;6182789;23;20260;-89
2024/03/05 10:39:42;;;;;;;62.42;24.70;;;;;;;;;;6194520;23;20175;-89
2024/03/05 10:42:47;;;;;;;69.05;23.27;;;;;;;;;;6178623;23;20152;-88
2024/03/05 10:45:53;;;;;;;61.25;22.38;;;;;;;;;;6196871;23;20198;-89
2024/03/05 10:49:01;;;;;;;64.03;24.35;;;;;;;;;;6178435;23;20243;-89
2024/03/05 10:52:06;;;;;;;64.18;24.92;;;;;;;;;;6198075;23;20187;-89
2024/03/05 10:55:11;;;;;;;56.33;21.38;;;;;;;;;;6179981;23;20172;-90
2024/03/05 10:58:42;;;;;;;58.97;22.65;;;;;;;;;;6196690;23;20159;-90
2024/03/05 11:01:45;;;;;;;62.20;23.08;;;;;;;;;;6179983;23;20171;-90
2024/03/05 11:04:54;;;;;;;63.65;22.17;;;;;;;;;;6197914;23;20171;-91
2024/03/05 11:08:00;;;;;;;59.03;22.63;;;;;;;;;;6198203;23;20235;-91
2024/03/05 11:11:07;;;;;;;62.15;21.80;;;;;;;;;;6198855;23;20168;-91
2024/03/05 11:14:13;;;;;;;63.53;22.70;;;;;;;;;;6181164;23;20211;-89
2024/03/05 11:17:19;;;;;;;67.85;24.17;;;;;;;;;;6199184;23;20227;-90
2024/03/05 11:20:42;;;;;;;56.80;21.10;;;;;;;;;;6179457;23;20623;-90
2024/03/05 11:23:57;;;;;;;58.33;22.45;;;;;;;;;;6177833;23;20226;-90
2024/03/05 11:27:11;;;;;;;64.20;22.80;;;;;;;;;;6177123;23;20172;-89
2024/03/05 11:30:18;;;;;;;64.32;23.90;;;;;;;;;;6195742;23;20217;-89
2024/03/05 11:33:26;;;;;;;62.22;22.80;;;;;;;;;;6179014;23;20171;-91
2024/03/05 11:36:34;;;;;;;63.88;23.63;;;;;;;;;;6184337;23;20252;-90
2024/03/05 11:39:43;;;;;;;67.72;23.67;;;;;;;;;;6197056;23;20215;-89
2024/03/05 11:42:50;;;;;;;72.40;26.23;;;;;;;;;;6198207;23;20219;-90
2024/03/05 11:45:56;;;;;;;69.15;24.30;;;;;;;;;;6179021;23;20187;-91
2024/03/05 11:49:02;;;;;;;69.95;25.98;;;;;;;;;;6177849;23;20245;-90
2024/03/05 11:52:08;;;;;;;72.22;25.20;;;;;;;;;;6179609;23;20168;-92
2024/03/05 11:55:14;;;;;;;65.35;25.73;;;;;;;;;;6178687;23;20272;-89
2024/03/05 11:58:24;;;;;;;70.07;26.13;;;;;;;;;;6196453;23;20155;-91
2024/03/05 12:01:29;;;;;;;61.35;24.52;;;;;;;;;;6197367;23;20224;-90
2024/03/05 12:04:35;;;;;;;73.78;26.33;;;;;;;;;;6179458;23;20292;-90
2024/03/05 12:07:41;;;;;;;67.07;24.17;;;;;;;;;;6179661;23;20168;-90
2024/03/05 12:10:49;;;;;;;70.18;25.48;;;;;;;;;;6196421;23;20171;-90
2024/03/05 12:13:55;;;;;;;69.22;24.75;;;;;;;;;;6198730;23;20256;-89
2024/03/05 12:17:03;;;;;;;65.55;24.65;;;;;;;;;;6199073;23;20192;-89
2024/03/05 12:20:10;;;;;;;75.78;25.05;;;;;;;;;;6198685;23;20171;-90
2024/03/05 12:23:17;;;;;;;66.35;25.50;;;;;;;;;;6180295;23;20279;-90
2024/03/05 12:26:23;;;;;;;65.47;24.75;;;;;;;;;;6178932;23;20191;-90
2024/03/05 12:29:34;;;;;;;70.28;24.45;;;;;;;;;;6196510;23;20212;-90
2024/03/05 12:32:42;;;;;;;69.30;23.75;;;;;;;;;;6180177;23;20172;-90
2024/03/05 12:35:48;;;;;;;66.03;24.63;;;;;;;;;;6199580;23;20172;-89
2024/03/05 12:38:58;;;;;;;57.92;22.13;;;;;;;;;;6197355;23;20233;-89
2024/03/05 12:42:03;;;;;;;65.43;24.30;;;;;;;;;;6181064;23;20172;-90
2024/03/05 12:45:14;;;;;;;58.22;22.70;;;;;;;;;;6200809;23;20285;-89
2024/03/05 12:48:27;;;;;;;63.72;22.15;;;;;;;;;;6199124;23;20292;-89
2024/03/05 12:51:32;;;;;;;63.15;23.25;;;;;;;;;;6197905;23;20156;-89
2024/03/05 12:54:39;;;;;;;59.38;22.67;;;;;;;;;;6180368;23;20214;-89
2024/03/05 12:57:45;;;;;;;59.65;21.48;;;;;;;;;;6197267;23;20269;-90
2024/03/05 13:00:54;;;;;;;51.00;20.05;;;;;;;;;;6181391;23;20164;-90
2024/03/05 13:03:59;;;;;;;57.75;21.70;;;;;;;;;;6181814;23;20674;-90
2024/03/05 13:07:06;;;;;;;92.18;22.55;;;;;;;;;;6198970;23;20241;-91
2024/03/05 13:10:13;;;;;;;50.22;20.08;;;;;;;;;;6197426;23;20168;-90
2024/03/05 13:13:18;;;;;;;50.50;19.48;;;;;;;;;;6197355;23;20163;-89
2024/03/05 13:16:23;;;;;;;47.42;18.13;;;;;;;;;;6196612;23;20180;-90
2024/03/05 13:19:28;;;;;;;44.55;16.98;;;;;;;;;;6196857;23;20163;-91
2024/03/05 13:22:34;;;;;;;43.38;17.75;;;;;;;;;;6180698;23;20229;-91
2024/03/05 13:25:41;;;;;;;46.08;17.92;;;;;;;;;;6181400;23;20167;-91
2024/03/05 13:28:47;;;;;;;40.47;16.02;;;;;;;;;;6178130;23;20163;-89
2024/03/05 13:31:52;;;;;;;41.75;17.05;;;;;;;;;;6197306;23;20159;-89
2024/03/05 13:34:57;;;;;;;43.35;16.35;;;;;;;;;;6179996;23;20579;-90
2024/03/05 13:38:05;;;;;;;40.40;15.40;;;;;;;;;;6180880;23;20231;-88
2024/03/05 13:41:14;;;;;;;44.58;17.02;;;;;;;;;;6198950;23;20171;-90
2024/03/05 13:44:21;;;;;;;43.38;16.83;;;;;;;;;;6196484;23;20250;-90
2024/03/05 13:47:27;;;;;;;44.10;16.10;;;;;;;;;;6177734;23;20168;-91
2024/03/05 13:50:33;;;;;;;41.25;16.27;;;;;;;;;;6178780;23;20151;-91
2024/03/05 13:53:38;;;;;;;39.47;15.68;;;;;;;;;;6179447;23;20216;-90
2024/03/05 13:56:45;;;;;;;39.78;15.15;;;;;;;;;;6195418;23;20802;-90
2024/03/05 13:59:55;;;;;;;39.05;15.18;;;;;;;;;;6153658;23;20180;-90
2024/03/05 14:03:02;;;;;;;44.70;17.38;;;;;;;;;;6178729;23;20212;-91
2024/03/05 14:06:08;;;;;;;39.70;15.70;;;;;;;;;;6179234;23;20164;-88
2024/03/05 14:09:13;;;;;;;37.40;15.25;;;;;;;;;;6177800;23;20175;-90
2024/03/05 14:12:21;;;;;;;39.33;16.85;;;;;;;;;;6178353;23;20168;-90
2024/03/05 14:15:28;;;;;;;39.25;15.63;;;;;;;;;;6178474;23;20171;-90
2024/03/05 14:18:34;;;;;;;33.75;15.30;;;;;;;;;;6200214;23;20235;-90
2024/03/05 14:21:38;;;;;;;33.92;14.07;;;;;;;;;;6197451;23;20287;-89
2024/03/05 14:24:44;;;;;;;45.47;16.48;;;;;;;;;;6198797;23;20176;-90
2024/03/05 14:27:50;;;;;;;38.60;16.58;;;;;;;;;;6196411;23;20172;-89
2024/03/05 14:30:56;;;;;;;41.15;15.57;;;;;;;;;;6177742;23;20167;-90
2024/03/05 14:34:01;;;;;;;42.33;16.55;;;;;;;;;;6198788;23;20156;-89
2024/03/05 14:37:09;;;;;;;43.05;15.70;;;;;;;;;;6197499;23;20523;-90
2024/03/05 14:40:15;;;;;;;39.03;16.63;;;;;;;;;;6196171;23;20243;-91
2024/03/05 14:43:22;;;;;;;42.78;16.58;;;;;;;;;;6178206;23;20172;-91
2024/03/05 14:46:30;;;;;;;43.50;16.17;;;;;;;;;;6179740;23;20194;-91
2024/03/05 14:49:35;;;;;;;40.33;15.95;;;;;;;;;;6179435;23;20184;-91
2024/03/05 14:52:40;;;;;;;38.45;15.65;;;;;;;;;;6197046;23;20616;-90
2024/03/05 14:55:46;;;;;;;42.55;15.57;;;;;;;;;;6180088;23;20172;-90
2024/03/05 14:58:53;;;;;;;44.03;16.00;;;;;;;;;;6197129;23;20192;-89
2024/03/05 15:01:59;;;;;;;42.78;16.70;;;;;;;;;;6180331;23;20183;-90
2024/03/05 15:05:06;;;;;;;39.88;16.83;;;;;;;;;;6198453;23;20500;-89
2024/03/05 15:08:12;;;;;;;38.78;16.30;;;;;;;;;;6198035;23;20171;-91
2024/03/05 15:11:17;;;;;;;38.75;15.32;;;;;;;;;;6199325;23;20163;-90
2024/03/05 15:14:24;;;;;;;39.17;15.65;;;;;;;;;;6180629;23;20242;-90
2024/03/05 15:17:29;;;;;;;44.33;16.10;;;;;;;;;;6196974;23;20184;-91
2024/03/05 15:20:34;;;;;;;45.70;16.50;;;;;;;;;;6195690;23;20268;-90
2024/03/05 15:23:39;;;;;;;41.22;16.48;;;;;;;;;;6195577;23;20191;-90
2024/03/05 15:26:44;;;;;;;40.08;15.93;;;;;;;;;;6177990;23;20295;-91
2024/03/05 15:29:51;;;;;;;40.70;16.23;;;;;;;;;;6178699;23;20184;-91
2024/03/05 15:32:56;;;;;;;38.75;15.55;;;;;;;;;;6198890;23;20176;-90
2024/03/05 15:36:01;;;;;;;39.63;15.95;;;;;;;;;;6181497;23;20171;-91
2024/03/05 15:39:08;;;;;;;43.78;16.30;;;;;;;;;;6198142;23;20195;-91
2024/03/05 15:42:15;;;;;;;37.47;15.65;;;;;;;;;;6198666;23;20235;-91
2024/03/05 15:45:22;;;;;;;39.47;15.10;;;;;;;;;;6198552;23;20191;-91
2024/03/05 15:48:30;;;;;;;34.28;15.10;;;;;;;;;;6195633;23;20170;-91
2024/03/05 15:51:35;;;;;;;38.75;15.40;;;;;;;;;;6177235;23;20164;-90
2024/03/05 15:54:40;;;;;;;41.72;16.50;;;;;;;;;;6177160;23;20166;-92
2024/03/05 15:58:18;;;;;;;40.08;16.20;;;;;;;;;;6176345;23;20195;-90
2024/03/05 16:01:25;;;;;;;38.60;15.57;;;;;;;;;;6195927;23;20231;-91
2024/03/05 16:04:32;;;;;;;41.80;15.70;;;;;;;;;;6182637;23;20204;-90
2024/03/05 16:07:40;;;;;;;34.70;14.48;;;;;;;;;;6196641;23;20168;-90
2024/03/05 16:10:45;;;;;;;34.30;14.77;;;;;;;;;;6198037;23;20243;-89
2024/03/05 16:13:51;;;;;;;33.58;14.00;;;;;;;;;;6180524;23;20195;-90
2024/03/05 16:16:58;;;;;;;29.95;12.30;;;;;;;;;;6196668;23;20172;-90
2024/03/05 16:20:05;;;;;;;31.85;12.82;;;;;;;;;;6180129;23;20168;-90
2024/03/05 16:23:11;;;;;;;33.92;13.23;;;;;;;;;;6195543;23;20167;-92
2024/03/05 16:26:16;;;;;;;31.92;12.20;;;;;;;;;;6199329;23;20155;-90
2024/03/05 16:29:22;;;;;;;34.15;12.63;;;;;;;;;;6198262;23;20193;-90
2024/03/05 16:32:34;;;;;;;31.10;12.52;;;;;;;;;;6181575;23;20235;-90
2024/03/05 16:35:39;;;;;;;30.10;12.15;;;;;;;;;;6184225;23;20168;-90
2024/03/05 16:38:44;;;;;;;37.00;13.40;;;;;;;;;;6181434;23;20248;-90
2024/03/05 16:41:50;;;;;;;32.97;12.93;;;;;;;;;;6182902;23;20144;-91
2024/03/05 16:44:55;;;;;;;29.05;11.93;;;;;;;;;;6183473;23;20168;-89
2024/03/05 16:48:04;;;;;;;29.10;11.98;;;;;;;;;;6183409;23;20167;-89
2024/03/05 16:51:10;;;;;;;33.75;14.75;;;;;;;;;;6180801;23;20164;-91
2024/03/05 16:54:15;;;;;;;42.00;16.65;;;;;;;;;;6198973;23;20471;-90
2024/03/05 16:57:20;;;;;;;37.70;15.00;;;;;;;;;;6199168;23;20211;-92
2024/03/05 17:00:30;;;;;;;34.15;13.70;;;;;;;;;;6182155;23;20172;-89
2024/03/05 17:03:41;;;;;;;32.10;11.75;;;;;;;;;;6200747;23;20358;-89
2024/03/05 17:06:50;;;;;;;32.88;11.20;;;;;;;;;;6200196;23;20168;-89
2024/03/05 17:10:00;;;;;;;24.90;11.18;;;;;;;;;;6200875;23;20160;-88
2024/03/05 17:13:10;;;;;;;28.08;12.80;;;;;;;;;;6201659;23;20176;-90
2024/03/05 17:16:18;;;;;;;31.77;12.43;;;;;;;;;;6203124;23;20176;-91
2024/03/05 17:19:27;;;;;;;28.75;12.10;;;;;;;;;;6182288;23;20195;-90
2024/03/05 17:22:32;;;;;;;29.55;12.10;;;;;;;;;;6198685;23;20155;-90
2024/03/05 17:25:38;;;;;;;24.85;10.48;;;;;;;;;;6182578;23;20143;-90
2024/03/05 17:28:43;;;;;;;26.90;11.57;;;;;;;;;;6182668;23;20172;-89
2024/03/05 17:31:49;;;;;;;30.60;12.23;;;;;;;;;;6199906;23;20170;-90
2024/03/05 17:35:10;;;;;;;38.38;14.32;;;;;;;;;;6200728;23;20173;-88
2024/03/05 17:38:16;;;;;;;32.10;13.10;;;;;;;;;;6183287;23;20196;-90
2024/03/05 17:41:22;;;;;;;30.27;12.70;;;;;;;;;;6200424;23;20167;-90
2024/03/05 17:44:27;;;;;;;32.20;13.55;;;;;;;;;;6182528;23;20163;-90
2024/03/05 17:47:36;;;;;;;33.00;13.02;;;;;;;;;;6198372;23;20565;-91
2024/03/05 17:50:43;;;;;;;33.80;13.35;;;;;;;;;;6200270;23;20156;-90
2024/03/05 17:53:50;;;;;;;36.40;13.60;;;;;;;;;;6197336;23;20171;-92
2024/03/05 17:56:56;;;;;;;31.67;12.60;;;;;;;;;;6199248;23;20151;-90
2024/03/05 18:00:11;;;;;;;34.65;12.70;;;;;;;;;;6200229;23;20180;-90
2024/03/05 18:03:21;;;;;;;29.92;11.77;;;;;;;;;;6201232;23;20212;-91
2024/03/05 18:06:27;;;;;;;38.88;12.00;;;;;;;;;;6200143;23;20302;-90
2024/03/05 18:09:36;;;;;;;30.05;11.68;;;;;;;;;;6182352;23;20172;-91
2024/03/05 18:12:43;;;;;;;30.33;12.10;;;;;;;;;;6199457;23;20215;-91
2024/03/05 18:15:49;;;;;;;32.72;12.43;;;;;;;;;;6198836;23;20623;-89
2024/03/05 18:18:55;;;;;;;24.45;10.73;;;;;;;;;;6198018;23;20199;-90
2024/03/05 18:22:01;;;;;;;34.08;12.77;;;;;;;;;;6199588;23;20165;-90
2024/03/05 18:25:14;;;;;;;28.92;12.15;;;;;;;;;;6199467;23;20168;-90
2024/03/05 18:28:23;;;;;;;29.15;12.18;;;;;;;;;;6197340;23;20622;-89
2024/03/05 18:31:32;;;;;;;33.47;13.68;;;;;;;;;;6179113;23;20167;-89
2024/03/05 18:34:38;;;;;;;38.03;14.38;;;;;;;;;;6184666;23;20184;-90
2024/03/05 18:37:43;;;;;;;47.38;15.98;;;;;;;;;;6202211;23;20215;-89
2024/03/05 18:40:51;;;;;;;34.22;13.60;;;;;;;;;;6181627;23;20299;-89
2024/03/05 18:43:58;;;;;;;45.47;17.42;;;;;;;;;;6197628;23;20168;-91
2024/03/05 18:47:05;;;;;;;42.70;17.80;;;;;;;;;;6181032;23;20187;-89
2024/03/05 18:50:13;;;;;;;58.17;20.80;;;;;;;;;;6199014;23;20175;-90
2024/03/05 18:53:18;;;;;;;49.90;19.05;;;;;;;;;;6199564;23;20168;-89
2024/03/05 18:56:24;;;;;;;64.03;23.40;;;;;;;;;;6196649;23;20191;-89
2024/03/05 18:59:30;;;;;;;45.80;17.52;;;;;;;;;;6180387;23;20178;-89
2024/03/05 19:02:35;;;;;;;44.55;17.98;;;;;;;;;;6196507;23;20276;-90
2024/03/05 19:05:42;;;;;;;42.13;17.90;;;;;;;;;;6198933;23;20156;-90
2024/03/05 19:08:47;;;;;;;41.72;16.38;;;;;;;;;;6179817;23;20187;-90
2024/03/05 19:11:54;;;;;;;43.42;16.83;;;;;;;;;;6178080;23;20163;-89
2024/03/05 19:14:59;;;;;;;39.80;14.52;;;;;;;;;;6196914;23;20168;-91
2024/03/05 19:18:08;;;;;;;38.80;15.45;;;;;;;;;;6179043;23;20163;-89
2024/03/05 19:21:13;;;;;;;55.42;21.75;;;;;;;;;;6196987;23;20233;-90
2024/03/05 19:24:18;;;;;;;41.72;16.63;;;;;;;;;;6196919;23;20250;-89
2024/03/05 19:27:26;;;;;;;45.17;16.80;;;;;;;;;;6177239;23;20243;-89